Time;durP1;ratioP1;P1;durP2;ratioP2;P2;SDS_P1;SDS_P2;PMS_P1;PMS_P2;Temp;Humidity;BMP_temperature;BMP_pressure;BME280_temperature;BME280_humidity;BME280_pressure;Samples;Min_cycle;Max_cycle;Signal;HPM_P1;HPM_P2
2023/03/15 00:00:44;;;;;;;11.98;4.47;;;3.30;99.90;;;;;;5006513;28;20109;-60
2023/03/15 00:03:10;;;;;;;18.13;4.35;;;3.30;99.90;;;;;;5018190;28;20083;-61
2023/03/15 00:05:40;;;;;;;14.65;3.40;;;3.30;99.90;;;;;;5020904;28;20037;-61
2023/03/15 00:08:05;;;;;;;9.05;3.00;;;3.30;99.90;;;;;;5016353;28;20025;-60
2023/03/15 00:10:31;;;;;;;8.50;2.22;;;3.30;99.90;;;;;;4991693;28;20486;-60
2023/03/15 00:12:57;;;;;;;16.40;3.67;;;3.30;99.90;;;;;;5001395;28;20028;-61
2023/03/15 00:15:22;;;;;;;7.30;3.25;;;3.30;99.90;;;;;;5018092;28;20048;-60
2023/03/15 00:17:48;;;;;;;9.43;2.83;;;3.30;99.90;;;;;;5016195;28;20022;-61
2023/03/15 00:20:14;;;;;;;15.05;2.60;;;3.30;99.90;;;;;;5015288;28;20014;-61
2023/03/15 00:22:40;;;;;;;9.85;2.42;;;3.30;99.90;;;;;;5016344;28;20483;-61
2023/03/15 00:25:07;;;;;;;12.05;2.83;;;3.30;99.90;;;;;;4997944;28;20090;-61
2023/03/15 00:27:32;;;;;;;8.23;2.10;;;3.30;99.90;;;;;;5015490;28;20084;-61
2023/03/15 00:29:58;;;;;;;12.07;2.47;;;3.20;99.90;;;;;;5017281;28;20029;-61
2023/03/15 00:32:24;;;;;;;13.93;3.85;;;3.30;99.90;;;;;;5014176;28;20372;-60
2023/03/15 00:34:53;;;;;;;13.25;3.22;;;3.30;99.90;;;;;;5017719;28;20377;-61
2023/03/15 00:37:19;;;;;;;18.83;3.08;;;3.20;99.90;;;;;;5006668;28;20026;-61
2023/03/15 00:39:46;;;;;;;10.68;3.95;;;3.20;99.90;;;;;;5017210;28;20482;-61
2023/03/15 00:42:14;;;;;;;10.70;3.67;;;3.20;99.90;;;;;;5016388;28;20037;-61
2023/03/15 00:44:43;;;;;;;16.25;3.80;;;3.20;99.90;;;;;;5015464;28;20018;-60
2023/03/15 00:47:13;;;;;;;11.68;3.83;;;3.10;99.90;;;;;;5015156;28;20030;-61
2023/03/15 00:49:40;;;;;;;7.15;3.05;;;3.10;99.90;;;;;;5017210;28;20034;-60
2023/03/15 00:52:06;;;;;;;10.63;3.33;;;3.10;99.90;;;;;;5018365;28;20441;-61
2023/03/15 00:54:32;;;;;;;16.98;3.60;;;3.10;99.90;;;;;;5016004;28;20087;-60
2023/03/15 00:57:02;;;;;;;12.23;3.33;;;3.00;99.90;;;;;;5016158;28;20112;-61
2023/03/15 00:59:33;;;;;;;12.95;3.38;;;3.00;99.90;;;;;;5017764;28;20524;-60
2023/03/15 01:02:03;;;;;;;14.68;4.22;;;2.90;99.90;;;;;;5000731;28;20045;-61
2023/03/15 01:04:28;;;;;;;13.73;3.80;;;2.90;99.90;;;;;;5013416;28;20018;-61
2023/03/15 01:06:54;;;;;;;10.98;3.50;;;2.90;99.90;;;;;;5015198;28;20018;-60
2023/03/15 01:09:20;;;;;;;12.82;3.85;;;2.90;99.90;;;;;;5006430;28;20080;-60
2023/03/15 01:11:46;;;;;;;11.68;3.88;;;2.90;99.90;;;;;;5014527;28;20486;-60
2023/03/15 01:14:11;;;;;;;13.13;3.15;;;2.80;99.90;;;;;;5015553;28;20118;-61
2023/03/15 01:16:37;;;;;;;17.77;3.97;;;2.90;99.90;;;;;;5014842;28;20113;-60
2023/03/15 01:19:03;;;;;;;12.23;3.75;;;2.80;99.90;;;;;;5019954;28;20088;-60
2023/03/15 01:21:28;;;;;;;14.85;4.03;;;2.90;99.90;;;;;;5019748;28;20010;-60
2023/03/15 01:23:54;;;;;;;14.52;2.60;;;2.80;99.90;;;;;;5020985;28;20021;-60
2023/03/15 01:26:20;;;;;;;14.70;3.40;;;2.80;99.90;;;;;;5017982;28;20034;-60
2023/03/15 01:28:46;;;;;;;11.77;3.03;;;2.80;99.90;;;;;;5019157;28;20076;-60
2023/03/15 01:31:18;;;;;;;12.20;2.92;;;2.80;99.90;;;;;;5020161;28;22306;-60
2023/03/15 01:33:44;;;;;;;14.48;3.15;;;2.80;99.90;;;;;;5020083;28;20018;-60
2023/03/15 01:36:11;;;;;;;14.05;2.75;;;2.70;99.90;;;;;;5017142;28;20061;-60
2023/03/15 01:38:36;;;;;;;13.02;3.25;;;2.70;99.90;;;;;;5015421;28;20030;-60
2023/03/15 01:41:02;;;;;;;14.10;3.58;;;2.70;99.90;;;;;;5017428;28;20100;-61
2023/03/15 01:43:30;;;;;;;14.98;3.40;;;2.70;99.90;;;;;;5017385;28;20034;-60
2023/03/15 01:45:59;;;;;;;11.93;2.97;;;2.60;99.90;;;;;;5016559;28;20039;-60
2023/03/15 01:48:31;;;;;;;16.00;2.45;;;2.60;99.90;;;;;;5018237;28;20025;-60
2023/03/15 01:50:58;;;;;;;7.22;2.28;;;2.50;99.90;;;;;;5018858;28;20033;-60
2023/03/15 01:53:27;;;;;;;17.55;3.00;;;2.50;99.90;;;;;;5016317;28;20056;-60
2023/03/15 01:55:53;;;;;;;9.15;2.58;;;2.50;99.90;;;;;;5020277;28;20046;-60
2023/03/15 01:58:24;;;;;;;11.50;2.58;;;2.50;99.90;;;;;;5017976;28;20037;-60
2023/03/15 02:00:51;;;;;;;;;;;2.50;99.90;;;;;;4993265;28;20447;-61
2023/03/15 02:03:45;;;;;;;13.13;3.17;;;2.50;99.90;;;;;;5018182;28;20012;-60
2023/03/15 02:06:16;;;;;;;6.75;2.38;;;2.50;99.90;;;;;;5017489;28;20041;-60
2023/03/15 02:08:48;;;;;;;15.60;3.63;;;2.40;99.90;;;;;;5017321;28;20037;-61
2023/03/15 02:11:16;;;;;;;9.23;2.47;;;2.40;99.90;;;;;;5016540;28;20029;-60
2023/03/15 02:13:43;;;;;;;12.27;2.83;;;2.40;99.90;;;;;;5017405;28;20049;-60
2023/03/15 02:16:08;;;;;;;13.57;2.67;;;2.40;99.90;;;;;;5015819;28;20021;-60
2023/03/15 02:18:37;;;;;;;15.90;3.53;;;2.40;99.90;;;;;;5016909;28;20052;-60
2023/03/15 02:21:11;;;;;;;14.98;2.65;;;2.40;99.90;;;;;;5017458;28;20033;-61
2023/03/15 02:23:37;;;;;;;9.85;2.58;;;2.40;99.90;;;;;;5014353;28;20038;-61
2023/03/15 02:26:09;;;;;;;9.40;2.42;;;2.40;99.90;;;;;;5018123;28;20059;-60
2023/03/15 02:28:35;;;;;;;15.77;2.25;;;2.30;99.90;;;;;;5016954;28;20018;-60
2023/03/15 02:31:02;;;;;;;12.55;3.15;;;2.30;99.90;;;;;;5019573;28;20030;-61
2023/03/15 02:33:30;;;;;;;13.05;2.40;;;2.30;99.90;;;;;;5016918;28;20111;-60
2023/03/15 02:36:08;;;;;;;10.38;2.92;;;2.20;99.90;;;;;;5016964;28;20045;-60
2023/03/15 02:38:33;;;;;;;10.02;2.53;;;2.20;99.90;;;;;;5018684;28;20123;-60
2023/03/15 02:40:59;;;;;;;15.25;2.35;;;2.10;99.90;;;;;;5012335;28;20487;-60
2023/03/15 02:43:29;;;;;;;7.90;2.38;;;2.00;99.90;;;;;;5016799;28;20048;-60
2023/03/15 02:45:55;;;;;;;5.95;2.65;;;2.00;99.90;;;;;;5011834;28;20021;-61
2023/03/15 02:48:21;;;;;;;11.25;2.92;;;1.90;99.90;;;;;;5017435;28;20017;-60
2023/03/15 02:50:47;;;;;;;18.60;4.95;;;1.80;99.90;;;;;;5016570;28;20024;-61
2023/03/15 02:53:12;;;;;;;9.88;3.97;;;1.80;99.90;;;;;;5016666;28;20116;-61
2023/03/15 02:55:38;;;;;;;14.45;3.17;;;1.70;99.90;;;;;;5019253;28;20049;-60
2023/03/15 02:58:04;;;;;;;16.10;3.28;;;1.70;99.90;;;;;;5022656;28;20091;-60
2023/03/15 03:00:30;;;;;;;6.40;3.33;;;1.70;99.90;;;;;;5019227;28;20018;-61
2023/03/15 03:02:56;;;;;;;6.75;2.38;;;1.60;99.90;;;;;;5014748;28;20666;-60
2023/03/15 03:05:22;;;;;;;10.98;3.20;;;1.60;99.90;;;;;;5019685;28;20042;-61
2023/03/15 03:07:49;;;;;;;12.85;2.90;;;1.60;99.90;;;;;;5016762;28;20041;-60
2023/03/15 03:10:17;;;;;;;14.00;2.95;;;1.50;99.90;;;;;;5017566;28;20037;-61
2023/03/15 03:12:43;;;;;;;9.90;3.13;;;1.50;99.90;;;;;;5013419;28;20033;-60
2023/03/15 03:15:09;;;;;;;14.32;3.30;;;1.40;99.90;;;;;;5014716;28;20200;-60
2023/03/15 03:17:37;;;;;;;14.30;4.78;;;1.40;99.90;;;;;;5016906;28;20029;-60
2023/03/15 03:20:08;;;;;;;13.63;4.20;;;1.30;99.90;;;;;;5015446;28;20080;-60
2023/03/15 03:22:34;;;;;;;9.80;3.83;;;1.30;99.90;;;;;;5018074;28;20030;-60
2023/03/15 03:25:01;;;;;;;11.65;4.00;;;1.30;99.90;;;;;;5018700;28;20025;-61
2023/03/15 03:27:27;;;;;;;8.27;3.35;;;1.20;99.90;;;;;;5013083;28;20401;-60
2023/03/15 03:29:52;;;;;;;15.07;3.70;;;1.20;99.90;;;;;;5016423;28;20022;-60
2023/03/15 03:32:18;;;;;;;10.88;3.47;;;1.10;99.90;;;;;;5015188;28;20040;-60
2023/03/15 03:34:50;;;;;;;21.77;4.20;;;1.10;99.90;;;;;;4998251;28;20597;-60
2023/03/15 03:37:17;;;;;;;12.20;2.97;;;1.10;99.90;;;;;;5018963;28;20698;-61
2023/03/15 03:39:43;;;;;;;11.98;3.00;;;1.00;99.90;;;;;;5018234;28;20121;-60
2023/03/15 03:42:09;;;;;;;8.52;2.75;;;1.00;99.90;;;;;;5001054;28;20110;-60
2023/03/15 03:44:34;;;;;;;10.30;2.42;;;1.00;99.90;;;;;;5015482;28;20548;-61
2023/03/15 03:47:00;;;;;;;11.27;3.08;;;0.90;99.90;;;;;;5015449;28;20080;-61
2023/03/15 03:49:25;;;;;;;9.35;2.10;;;0.90;99.90;;;;;;5015709;28;20034;-60
2023/03/15 03:51:51;;;;;;;7.28;2.00;;;0.90;99.90;;;;;;4999210;28;20402;-60
2023/03/15 03:54:19;;;;;;;8.45;2.30;;;0.80;99.90;;;;;;5017775;28;20033;-60
2023/03/15 03:56:45;;;;;;;14.45;2.88;;;0.80;99.90;;;;;;5002878;28;20401;-60
2023/03/15 03:59:11;;;;;;;14.63;2.38;;;0.70;99.90;;;;;;5014916;28;20033;-60
2023/03/15 04:01:36;;;;;;;12.52;1.95;;;0.70;99.90;;;;;;5015195;28;20041;-60
2023/03/15 04:04:02;;;;;;;9.25;1.88;;;0.70;99.90;;;;;;4998073;28;20142;-60
2023/03/15 04:06:28;;;;;;;9.07;1.77;;;0.60;99.90;;;;;;5018350;28;20075;-59
2023/03/15 04:08:53;;;;;;;6.82;1.58;;;0.60;99.90;;;;;;5018335;28;20092;-60
2023/03/15 04:11:19;;;;;;;11.80;3.60;;;0.60;99.90;;;;;;5015133;28;20029;-60
2023/03/15 04:13:44;;;;;;;9.20;1.67;;;0.50;99.90;;;;;;5014718;28;20061;-60
2023/03/15 04:16:11;;;;;;;8.23;1.95;;;0.50;99.90;;;;;;5014766;28;20034;-60
2023/03/15 04:18:39;;;;;;;6.43;2.53;;;0.40;99.90;;;;;;5017406;28;20037;-60
2023/03/15 04:21:09;;;;;;;8.98;2.65;;;0.40;99.90;;;;;;5015240;28;20545;-60
2023/03/15 04:23:36;;;;;;;10.35;2.92;;;0.30;99.90;;;;;;5015880;28;20152;-60
2023/03/15 04:26:02;;;;;;;10.57;2.75;;;0.20;99.90;;;;;;5013127;28;20884;-60
2023/03/15 04:28:29;;;;;;;10.38;2.47;;;0.20;99.90;;;;;;5012790;28;20589;-60
2023/03/15 04:30:57;;;;;;;10.73;2.75;;;0.20;99.90;;;;;;5015676;28;20391;-60
2023/03/15 04:33:23;;;;;;;18.45;4.78;;;0.10;99.90;;;;;;5017446;28;20025;-60
2023/03/15 04:35:51;;;;;;;10.77;2.53;;;0.20;99.90;;;;;;5015077;28;20017;-61
2023/03/15 04:38:17;;;;;;;9.23;2.00;;;0.10;99.90;;;;;;5013955;28;20032;-60
2023/03/15 04:40:43;;;;;;;8.95;2.33;;;0.10;99.90;;;;;;5013989;28;20034;-60
2023/03/15 04:43:09;;;;;;;8.52;2.22;;;0.10;99.90;;;;;;4999879;28;20024;-60
2023/03/15 04:45:35;;;;;;;9.30;2.65;;;0.10;99.90;;;;;;5015549;28;20475;-60
2023/03/15 04:48:01;;;;;;;7.70;1.90;;;0.10;99.90;;;;;;5015508;28;20490;-58
2023/03/15 04:50:28;;;;;;;12.85;2.65;;;0.10;99.90;;;;;;5013714;28;20033;-60
2023/03/15 04:52:56;;;;;;;11.60;2.35;;;0.10;99.90;;;;;;5021410;28;20026;-59
2023/03/15 04:55:21;;;;;;;10.70;2.78;;;0.10;99.90;;;;;;5020164;28;20402;-61
2023/03/15 04:57:47;;;;;;;11.75;2.42;;;0.10;99.90;;;;;;5023037;28;20033;-60
2023/03/15 05:00:13;;;;;;;11.60;1.98;;;0.00;99.90;;;;;;5020756;28;20026;-60
2023/03/15 05:02:40;;;;;;;12.50;2.15;;;0.00;99.90;;;;;;5020254;28;20033;-60
2023/03/15 05:05:07;;;;;;;16.30;2.70;;;0.00;99.90;;;;;;5024007;28;20029;-60
2023/03/15 05:07:34;;;;;;;12.32;2.60;;;0.10;99.90;;;;;;5023121;28;20143;-60
2023/03/15 05:10:00;;;;;;;11.77;2.30;;;0.10;99.90;;;;;;5019754;28;20445;-61
2023/03/15 05:12:27;;;;;;;8.07;1.80;;;0.10;99.90;;;;;;5023828;28;20577;-60
2023/03/15 05:14:52;;;;;;;6.45;3.05;;;0.10;99.90;;;;;;5010065;28;20112;-60
2023/03/15 05:17:18;;;;;;;16.85;4.65;;;0.10;99.90;;;;;;5019935;28;20529;-59
2023/03/15 05:19:45;;;;;;;12.48;3.63;;;0.00;99.90;;;;;;5005369;28;20103;-60
2023/03/15 05:22:10;;;;;;;8.13;3.15;;;0.00;99.90;;;;;;5020540;28;20076;-59
2023/03/15 05:24:36;;;;;;;10.27;3.03;;;0.00;99.90;;;;;;5019070;28;20025;-60
2023/03/15 05:27:03;;;;;;;7.93;3.38;;;-0.10;99.90;;;;;;4988878;28;20455;-60
2023/03/15 05:29:29;;;;;;;14.02;3.95;;;-0.10;99.90;;;;;;5019199;28;20041;-60
2023/03/15 05:31:54;;;;;;;11.02;3.90;;;-0.10;99.90;;;;;;5022860;28;20425;-60
2023/03/15 05:34:23;;;;;;;17.92;4.13;;;-0.20;99.90;;;;;;5021625;28;20022;-61
2023/03/15 05:36:50;;;;;;;11.05;2.88;;;-0.20;99.90;;;;;;5022562;28;20077;-60
2023/03/15 05:39:17;;;;;;;19.23;5.20;;;-0.20;99.90;;;;;;5008904;28;20040;-60
2023/03/15 05:41:42;;;;;;;12.68;4.15;;;-0.20;99.90;;;;;;5018264;28;20030;-60
2023/03/15 05:44:08;;;;;;;19.85;3.63;;;-0.20;99.90;;;;;;5021517;28;20099;-59
2023/03/15 05:46:34;;;;;;;14.50;3.15;;;-0.20;99.90;;;;;;5021976;28;20453;-60
2023/03/15 05:48:59;;;;;;;12.10;3.17;;;-0.10;99.90;;;;;;5022433;28;20049;-59
2023/03/15 05:51:25;;;;;;;20.52;6.20;;;-0.10;99.90;;;;;;5021506;28;20112;-60
2023/03/15 05:53:51;;;;;;;12.05;4.22;;;-0.10;99.90;;;;;;5022580;28;20029;-59
2023/03/15 05:56:16;;;;;;;11.40;3.80;;;0.00;99.90;;;;;;5019969;28;20034;-60
2023/03/15 05:58:42;;;;;;;12.75;3.90;;;0.10;99.90;;;;;;5022281;28;20156;-60
2023/03/15 06:01:08;;;;;;;12.63;3.92;;;0.20;99.90;;;;;;5021499;28;20506;-60
2023/03/15 06:03:33;;;;;;;18.95;5.78;;;0.20;99.90;;;;;;5015188;28;20018;-60
2023/03/15 06:05:59;;;;;;;14.15;5.47;;;0.30;99.90;;;;;;5017466;28;20034;-60
2023/03/15 06:08:25;;;;;;;13.13;4.70;;;0.50;99.90;;;;;;5009457;28;20053;-60
2023/03/15 06:10:51;;;;;;;12.35;5.18;;;0.60;99.90;;;;;;5016902;28;20056;-60
2023/03/15 06:13:17;;;;;;;11.88;4.72;;;0.80;99.90;;;;;;5018824;28;20536;-61
2023/03/15 06:15:42;;;;;;;13.50;5.70;;;0.90;99.90;;;;;;5019950;28;20537;-60
2023/03/15 06:18:08;;;;;;;12.82;4.03;;;1.10;99.90;;;;;;5016227;28;20034;-61
2023/03/15 06:20:34;;;;;;;13.05;4.63;;;1.30;99.90;;;;;;5016301;28;20025;-60
2023/03/15 06:23:00;;;;;;;17.73;4.75;;;1.40;99.90;;;;;;5015835;28;20515;-61
2023/03/15 06:25:25;;;;;;;10.35;3.90;;;1.60;99.90;;;;;;5018914;28;20351;-60
2023/03/15 06:27:51;;;;;;;11.15;3.60;;;1.70;99.90;;;;;;5018531;28;20081;-60
2023/03/15 06:30:17;;;;;;;8.77;4.82;;;1.90;99.90;;;;;;5015461;28;20036;-60
2023/03/15 06:32:43;;;;;;;13.48;4.10;;;2.00;99.90;;;;;;5019303;28;20017;-60
2023/03/15 06:35:08;;;;;;;9.75;4.57;;;2.20;99.90;;;;;;5016458;28;20040;-60
2023/03/15 06:37:35;;;;;;;9.43;4.35;;;2.40;99.90;;;;;;5004958;28;20141;-61
2023/03/15 06:40:05;;;;;;;9.43;4.95;;;2.50;99.90;;;;;;5018680;28;20022;-60
2023/03/15 06:42:30;;;;;;;10.52;5.50;;;2.60;99.90;;;;;;5019917;28;20018;-60
2023/03/15 06:44:56;;;;;;;11.20;5.72;;;2.60;99.90;;;;;;5017547;28;20100;-60
2023/03/15 06:47:22;;;;;;;13.75;7.25;;;2.60;99.90;;;;;;5020578;28;20128;-60
2023/03/15 06:49:49;;;;;;;9.75;4.43;;;2.50;99.90;;;;;;5020091;28;20032;-60
2023/03/15 06:52:15;;;;;;;7.40;4.53;;;2.40;99.90;;;;;;5024124;28;20083;-60
2023/03/15 06:54:41;;;;;;;10.80;4.15;;;2.30;99.90;;;;;;5016863;28;20026;-60
2023/03/15 06:57:07;;;;;;;21.52;6.00;;;2.20;99.90;;;;;;5015964;28;20044;-60
2023/03/15 06:59:32;;;;;;;10.70;4.25;;;2.30;99.90;;;;;;5013868;28;20043;-61
2023/03/15 07:01:58;;;;;;;14.00;5.07;;;2.50;99.90;;;;;;5018767;28;20026;-60
2023/03/15 07:04:24;;;;;;;11.50;4.78;;;2.60;99.90;;;;;;5019012;28;20021;-61
2023/03/15 07:06:50;;;;;;;10.50;5.20;;;2.70;99.90;;;;;;5016562;28;20018;-60
2023/03/15 07:09:16;;;;;;;11.05;4.53;;;2.80;99.90;;;;;;5015300;28;20034;-59
2023/03/15 07:11:42;;;;;;;11.35;4.00;;;2.90;99.90;;;;;;5002756;28;20036;-60
2023/03/15 07:14:07;;;;;;;10.05;4.00;;;3.00;99.90;;;;;;5016299;28;20576;-60
2023/03/15 07:16:33;;;;;;;7.63;3.63;;;3.10;99.90;;;;;;5018165;28;20482;-60
2023/03/15 07:19:00;;;;;;;6.25;3.72;;;3.10;99.90;;;;;;5016821;28;20033;-60
2023/03/15 07:21:26;;;;;;;6.03;3.75;;;3.20;99.90;;;;;;5017574;28;20445;-61
2023/03/15 07:23:52;;;;;;;7.30;3.63;;;3.20;99.90;;;;;;5018412;28;20022;-61
2023/03/15 07:26:18;;;;;;;7.20;3.90;;;3.20;99.90;;;;;;5018140;28;20551;-61
2023/03/15 07:28:43;;;;;;;8.88;3.97;;;3.20;99.90;;;;;;5019666;28;20021;-61
2023/03/15 07:31:10;;;;;;;10.15;4.03;;;3.30;99.90;;;;;;5020533;28;20030;-60
2023/03/15 07:33:37;;;;;;;11.20;4.38;;;3.50;99.90;;;;;;5017397;28;20017;-61
2023/03/15 07:36:04;;;;;;;7.22;3.38;;;3.70;99.90;;;;;;5015061;28;20034;-61
2023/03/15 07:38:29;;;;;;;10.30;4.07;;;3.90;99.90;;;;;;5019658;28;20038;-60
2023/03/15 07:40:56;;;;;;;13.32;4.82;;;4.00;99.90;;;;;;5020033;28;20030;-60
2023/03/15 07:43:22;;;;;;;7.28;3.63;;;3.90;99.90;;;;;;5020317;28;20045;-60
2023/03/15 07:45:48;;;;;;;9.70;4.63;;;3.90;99.90;;;;;;5018844;28;20056;-60
2023/03/15 07:48:14;;;;;;;10.43;3.80;;;3.90;99.90;;;;;;5020623;28;20077;-60
2023/03/15 07:50:40;;;;;;;15.23;5.00;;;3.90;99.90;;;;;;5018739;28;20033;-59
2023/03/15 07:53:06;;;;;;;5.80;4.15;;;3.70;99.90;;;;;;5022431;28;20095;-60
2023/03/15 07:55:33;;;;;;;6.72;4.13;;;3.60;99.90;;;;;;5020031;28;20494;-60
2023/03/15 07:57:59;;;;;;;10.63;3.40;;;3.60;99.90;;;;;;5019484;28;20068;-60
2023/03/15 08:00:25;;;;;;;11.07;3.53;;;3.50;99.90;;;;;;5017271;28;20038;-60
2023/03/15 08:02:50;;;;;;;8.43;2.80;;;3.50;99.90;;;;;;5015038;28;20041;-60
2023/03/15 08:05:19;;;;;;;11.50;3.33;;;3.50;99.90;;;;;;5018974;28;20039;-60
2023/03/15 08:07:46;;;;;;;14.63;3.28;;;3.60;99.90;;;;;;5018410;28;20042;-61
2023/03/15 08:10:12;;;;;;;5.60;2.97;;;3.70;99.90;;;;;;5018823;28;20092;-60
2023/03/15 08:12:39;;;;;;;9.35;3.05;;;3.70;99.90;;;;;;5020203;28;20026;-60
2023/03/15 08:15:05;;;;;;;7.35;2.65;;;4.00;99.90;;;;;;5017308;28;20100;-60
2023/03/15 08:17:31;;;;;;;10.60;2.45;;;4.20;99.90;;;;;;5017171;28;20417;-61
2023/03/15 08:19:57;;;;;;;6.45;2.70;;;4.30;99.90;;;;;;5017093;28;20037;-61
2023/03/15 08:22:22;;;;;;;6.97;3.22;;;4.40;99.90;;;;;;5019129;28;20092;-62
2023/03/15 08:24:52;;;;;;;6.43;3.00;;;4.50;99.90;;;;;;5019838;28;20528;-60
2023/03/15 08:27:17;;;;;;;6.93;3.28;;;4.50;99.90;;;;;;5020002;28;20041;-60
2023/03/15 08:29:43;;;;;;;13.23;2.85;;;4.50;99.90;;;;;;5018588;28;20036;-60
2023/03/15 08:32:09;;;;;;;8.32;2.28;;;4.60;99.90;;;;;;5017837;28;20033;-59
2023/03/15 08:34:35;;;;;;;8.77;3.60;;;4.60;99.90;;;;;;5017434;28;20021;-60
2023/03/15 08:37:00;;;;;;;7.00;2.65;;;4.60;99.90;;;;;;5017866;28;20774;-60
2023/03/15 08:39:26;;;;;;;9.95;2.22;;;4.50;99.90;;;;;;5018735;28;20803;-60
2023/03/15 08:41:52;;;;;;;15.18;2.63;;;4.30;99.90;;;;;;5016630;28;20533;-60
2023/03/15 08:44:17;;;;;;;8.43;2.92;;;4.20;99.90;;;;;;5021098;28;20121;-60
2023/03/15 08:46:43;;;;;;;17.77;4.25;;;4.20;99.90;;;;;;5017448;28;20037;-61
2023/03/15 08:49:08;;;;;;;8.70;2.83;;;4.10;99.90;;;;;;5020922;28;20470;-60
2023/03/15 08:51:34;;;;;;;14.77;2.65;;;4.00;99.90;;;;;;5021011;28;20022;-60
2023/03/15 08:54:03;;;;;;;7.70;3.20;;;3.70;99.90;;;;;;5016544;28;20042;-61
2023/03/15 08:56:28;;;;;;;6.45;2.17;;;3.60;99.90;;;;;;5015479;28;20036;-60
2023/03/15 08:58:54;;;;;;;9.60;2.30;;;3.50;99.90;;;;;;5019371;28;20406;-60
2023/03/15 09:01:20;;;;;;;10.20;2.72;;;3.40;99.90;;;;;;5018952;28;20435;-60
2023/03/15 09:03:45;;;;;;;11.35;2.55;;;3.50;99.90;;;;;;5017817;28;20705;-60
2023/03/15 09:06:11;;;;;;;5.80;2.65;;;3.50;99.90;;;;;;5017773;28;20073;-60
2023/03/15 09:08:37;;;;;;;6.40;3.15;;;3.60;99.90;;;;;;5017417;28;20033;-60
2023/03/15 09:11:03;;;;;;;10.15;4.22;;;3.70;99.90;;;;;;5020259;28;20635;-60
2023/03/15 09:13:29;;;;;;;9.18;3.63;;;3.80;99.90;;;;;;5017999;28;20037;-59
2023/03/15 09:15:56;;;;;;;9.10;3.35;;;3.70;99.90;;;;;;5016042;28;20028;-61
2023/03/15 09:18:23;;;;;;;8.95;2.97;;;3.60;99.90;;;;;;5019047;28;20454;-60
2023/03/15 09:20:48;;;;;;;11.77;4.03;;;3.50;99.90;;;;;;5015058;28;20025;-60
2023/03/15 09:23:14;;;;;;;12.93;3.92;;;3.40;99.90;;;;;;5018370;28;20379;-61
2023/03/15 09:25:40;;;;;;;13.20;3.53;;;3.40;99.90;;;;;;5017704;28;20038;-60
2023/03/15 09:28:08;;;;;;;16.70;3.45;;;3.50;99.90;;;;;;5018672;28;20125;-61
2023/03/15 09:30:35;;;;;;;6.03;3.25;;;3.70;99.90;;;;;;5014291;28;20037;-60
2023/03/15 09:33:01;;;;;;;9.15;3.03;;;3.80;99.90;;;;;;5012868;28;20592;-61
2023/03/15 09:35:27;;;;;;;9.20;3.53;;;3.90;99.90;;;;;;5014112;28;20030;-61
2023/03/15 09:37:53;;;;;;;7.85;3.22;;;3.80;99.90;;;;;;5015962;28;20438;-60
2023/03/15 09:40:25;;;;;;;8.70;3.38;;;3.90;99.90;;;;;;5021389;28;20505;-60
2023/03/15 09:42:50;;;;;;;5.65;3.17;;;3.90;99.90;;;;;;5020810;28;20071;-60
2023/03/15 09:45:41;;;;;;;8.95;3.50;;;3.90;99.90;;;;;;5019823;28;20049;-60
2023/03/15 09:48:15;;;;;;;5.55;3.25;;;3.90;99.90;;;;;;5020411;28;20588;-60
2023/03/15 09:50:50;;;;;;;10.18;3.10;;;3.70;99.90;;;;;;5020186;28;20030;-60
2023/03/15 09:53:22;;;;;;;6.13;3.78;;;3.60;99.90;;;;;;5021814;28;20498;-61
2023/03/15 09:55:50;;;;;;;10.43;3.42;;;3.50;99.90;;;;;;5000532;28;20037;-59
2023/03/15 09:58:31;;;;;;;17.63;4.00;;;3.50;99.90;;;;;;5018562;28;20053;-60
2023/03/15 10:01:01;;;;;;;12.45;4.13;;;3.40;99.90;;;;;;5018960;28;20406;-60
2023/03/15 10:03:38;;;;;;;6.38;3.60;;;3.40;99.90;;;;;;5014494;28;20100;-61
2023/03/15 10:06:26;;;;;;;7.50;3.85;;;3.40;99.90;;;;;;5018967;28;20087;-60
2023/03/15 10:08:56;;;;;;;5.80;3.50;;;3.40;99.90;;;;;;5015074;28;20490;-60
2023/03/15 10:11:34;;;;;;;15.20;6.20;;;3.40;99.90;;;;;;5019889;28;20141;-61
2023/03/15 10:14:21;;;;;;;8.68;3.90;;;3.40;99.90;;;;;;5017510;28;20272;-60
2023/03/15 10:16:48;;;;;;;14.15;4.72;;;3.40;99.90;;;;;;5019372;28;20592;-60
2023/03/15 10:19:33;;;;;;;8.60;4.25;;;3.20;99.90;;;;;;5017060;28;20041;-61
2023/03/15 10:22:32;;;;;;;5.63;3.72;;;3.20;99.90;;;;;;5020016;28;20024;-60
2023/03/15 10:25:14;;;;;;;10.93;4.18;;;3.20;99.90;;;;;;5015219;28;20021;-60
2023/03/15 10:27:46;;;;;;;;;;;3.20;99.90;;;;;;5021195;28;20027;-61
2023/03/15 10:30:14;;;;;;;9.82;4.00;;;3.20;99.90;;;;;;5017698;28;20298;-61
2023/03/15 10:32:43;;;;;;;6.72;4.15;;;3.10;99.90;;;;;;5015946;28;20037;-60
2023/03/15 10:35:15;;;;;;;9.40;4.70;;;3.10;99.90;;;;;;5017819;28;20037;-60
2023/03/15 10:37:41;;;;;;;9.30;4.55;;;3.20;99.90;;;;;;5017714;28;20096;-59
2023/03/15 10:40:14;;;;;;;11.60;4.55;;;3.10;99.90;;;;;;5019663;28;20026;-60
2023/03/15 10:42:41;;;;;;;6.43;3.92;;;3.10;99.90;;;;;;5019651;28;20080;-60
2023/03/15 10:45:17;;;;;;;5.28;3.20;;;3.10;99.90;;;;;;5017116;28;20054;-60
2023/03/15 10:47:43;;;;;;;4.70;2.70;;;3.20;99.90;;;;;;5021074;28;20038;-60
2023/03/15 10:50:36;;;;;;;9.23;4.13;;;3.30;99.90;;;;;;5016159;28;20842;-61
2023/03/15 10:53:09;;;;;;;4.38;2.90;;;3.50;99.90;;;;;;5014783;28;20136;-60
2023/03/15 10:55:41;;;;;;;4.57;2.15;;;3.90;99.90;;;;;;5020111;28;20149;-61
2023/03/15 10:58:20;;;;;;;3.83;2.00;;;4.00;99.90;;;;;;5018986;28;20044;-60
2023/03/15 11:00:52;;;;;;;4.38;2.03;;;4.20;99.90;;;;;;5021967;28;20022;-60
2023/03/15 11:03:24;;;;;;;2.13;1.70;;;4.20;99.90;;;;;;5019703;28;20088;-60
2023/03/15 11:05:53;;;;;;;4.10;1.70;;;4.10;99.90;;;;;;5019119;28;20040;-60
2023/03/15 11:08:23;;;;;;;3.45;1.60;;;4.20;99.90;;;;;;5020992;28;20041;-60
2023/03/15 11:10:59;;;;;;;2.15;1.40;;;4.20;99.90;;;;;;5016372;28;20072;-60
2023/03/15 11:13:27;;;;;;;2.53;1.20;;;4.30;99.90;;;;;;5017605;28;20037;-60
2023/03/15 11:16:11;;;;;;;1.83;1.73;;;4.20;99.90;;;;;;5018367;28;20116;-60
2023/03/15 11:18:53;;;;;;;2.05;1.20;;;4.20;99.90;;;;;;5016249;28;20029;-60
2023/03/15 11:21:29;;;;;;;1.77;1.38;;;4.00;99.90;;;;;;5017008;28;20116;-60
2023/03/15 11:23:55;;;;;;;2.45;1.52;;;3.90;99.90;;;;;;5019359;28;20044;-60
2023/03/15 11:26:23;;;;;;;6.68;1.33;;;3.90;99.90;;;;;;5018561;28;20033;-61
2023/03/15 11:28:56;;;;;;;2.63;1.50;;;4.00;99.90;;;;;;5020045;28;20496;-61
2023/03/15 11:31:25;;;;;;;7.13;1.80;;;4.00;99.90;;;;;;5017840;28;20076;-60
2023/03/15 11:34:03;;;;;;;1.40;1.30;;;4.10;99.90;;;;;;5019153;28;20014;-60
2023/03/15 11:36:33;;;;;;;2.80;1.33;;;4.20;99.90;;;;;;5017129;28;20042;-60
2023/03/15 11:39:03;;;;;;;1.42;1.33;;;4.50;99.90;;;;;;5019000;28;20458;-59
2023/03/15 11:41:41;;;;;;;1.02;0.95;;;4.60;99.90;;;;;;5001237;28;20080;-60
2023/03/15 11:44:26;;;;;;;1.50;1.10;;;4.80;99.90;;;;;;5014827;28;20061;-60
2023/03/15 11:47:02;;;;;;;1.45;0.90;;;4.90;99.90;;;;;;5019774;28;20141;-60
2023/03/15 11:49:36;;;;;;;6.55;1.13;;;5.00;99.90;;;;;;5019644;28;20107;-60
2023/03/15 11:52:03;;;;;;;1.98;1.00;;;5.10;99.90;;;;;;5002273;28;20094;-60
2023/03/15 11:54:31;;;;;;;1.27;1.00;;;5.30;99.90;;;;;;5018149;28;20014;-60
2023/03/15 11:57:05;;;;;;;3.38;1.20;;;5.40;99.90;;;;;;5018472;28;20026;-60
2023/03/15 11:59:36;;;;;;;1.13;0.90;;;5.50;99.90;;;;;;5015391;28;20034;-59
2023/03/15 12:02:13;;;;;;;1.88;1.10;;;5.60;99.90;;;;;;5011725;28;20122;-62
2023/03/15 12:04:39;;;;;;;1.30;1.05;;;5.80;99.90;;;;;;5014168;28;20045;-60
2023/03/15 12:07:22;;;;;;;1.15;0.82;;;5.80;99.90;;;;;;5017763;28;20486;-61
2023/03/15 12:10:04;;;;;;;2.28;1.20;;;5.80;99.90;;;;;;5016270;28;20534;-60
2023/03/15 12:12:29;;;;;;;1.52;0.82;;;5.90;99.90;;;;;;5013071;28;20112;-60
2023/03/15 12:15:04;;;;;;;3.03;0.95;;;5.60;99.90;;;;;;5013370;28;20482;-60
2023/03/15 12:17:29;;;;;;;0.80;0.80;;;5.50;99.90;;;;;;5018087;28;20030;-60
2023/03/15 12:20:01;;;;;;;3.17;1.25;;;5.30;99.90;;;;;;5017658;28;20033;-60
2023/03/15 12:22:32;;;;;;;1.92;0.90;;;5.30;99.90;;;;;;5015387;28;20679;-60
2023/03/15 12:25:10;;;;;;;1.20;1.00;;;5.40;99.90;;;;;;5020461;28;20079;-60
2023/03/15 12:27:38;;;;;;;2.15;1.23;;;5.50;99.90;;;;;;5019221;28;20568;-60
2023/03/15 12:30:05;;;;;;;1.00;0.90;;;5.50;99.90;;;;;;5021033;28;20022;-60
2023/03/15 12:32:45;;;;;;;1.30;1.20;;;5.50;99.90;;;;;;5016511;28;20032;-60
2023/03/15 12:35:16;;;;;;;1.85;0.90;;;5.60;99.90;;;;;;5011218;28;20486;-60
2023/03/15 12:37:45;;;;;;;1.40;1.00;;;5.70;99.90;;;;;;5014499;28;20409;-60
2023/03/15 12:40:21;;;;;;;1.10;1.00;;;5.70;99.90;;;;;;5016426;28;20029;-59
2023/03/15 12:42:47;;;;;;;1.10;0.90;;;5.60;99.90;;;;;;5017316;28;20018;-60
2023/03/15 12:45:18;;;;;;;1.02;0.80;;;5.40;99.90;;;;;;5015469;28;20026;-60
2023/03/15 12:47:46;;;;;;;2.05;1.10;;;5.40;99.90;;;;;;5015935;28;20113;-61
2023/03/15 12:50:44;;;;;;;2.63;0.85;;;5.40;99.90;;;;;;5015223;28;20032;-61
2023/03/15 12:53:37;;;;;;;1.20;1.10;;;5.30;99.90;;;;;;4986322;28;20026;-60
2023/03/15 12:56:18;;;;;;;3.03;0.88;;;5.00;99.90;;;;;;5015790;28;20103;-60
2023/03/15 12:58:46;;;;;;;1.25;0.90;;;5.00;99.90;;;;;;4995436;28;20084;-61